NK87 weather

Merkle Airport
Clarence Center, New York, United States

Public forecast

Using degrees Fahrenheit for public forecast. Weather courtesy of forecast.io.

Closest aviation weather report (METAR) to Merkle Airport

Closest report is Buffalo Niagara International Airport, 9.6 nm (17.7 km) SW. Retrieved 2019/10/14 11:54 UTC (22 minutes ago):

KBUF 141154Z 29012KT 10SM SCT034 BKN080 08/03 A2992 RMK AO2 SLP134 60001 70001 T00780028 10094 20078 53016

Closest aviation forecast (TAF) to Merkle Airport

Closest forecast is Buffalo Niagara International Airport, 9.6 nm (17.7 km) SW. Retrieved 2019/10/14 12:22 UTC (0 seconds ago):

TAF KBUF 141120Z 1412/1512 26006KT P6SM BKN035 FM141700 26010G16KT P6SM BKN040 FM141900 26011G17KT P6SM SCT060 FM150500 23004KT P6SM SCT090 FM150600 22004KT P6SM SCT045